Time;durP1;ratioP1;P1;durP2;ratioP2;P2;SDS_P1;SDS_P2;PMS_P1;PMS_P2;Temp;Humidity;BMP_temperature;BMP_pressure;BME280_temperature;BME280_humidity;BME280_pressure;Samples;Min_cycle;Max_cycle;Signal;HPM_P1;HPM_P2
2021/01/28 00:00:13;;;;;;;8.90;6.13;;;5.60;99.90;;;;;;5086656;28;20027;-54
2021/01/28 00:02:39;;;;;;;10.43;6.95;;;5.60;99.90;;;;;;5087317;28;20044;-55
2021/01/28 00:05:05;;;;;;;9.13;6.43;;;5.70;99.90;;;;;;5088146;28;20529;-55
2021/01/28 00:07:31;;;;;;;9.57;6.85;;;5.70;99.90;;;;;;5091555;28;20139;-50
2021/01/28 00:09:57;;;;;;;10.35;6.28;;;5.70;99.90;;;;;;5088593;28;20484;-54
2021/01/28 00:12:22;;;;;;;10.93;6.78;;;5.70;99.90;;;;;;5087117;28;20036;-54
2021/01/28 00:14:48;;;;;;;10.00;6.50;;;5.80;99.90;;;;;;5086084;28;20032;-54
2021/01/28 00:17:14;;;;;;;9.40;6.30;;;5.70;99.90;;;;;;5088392;28;20375;-54
2021/01/28 00:19:40;;;;;;;8.70;6.47;;;5.60;99.90;;;;;;5087265;28;20035;-54
2021/01/28 00:22:06;;;;;;;8.80;5.90;;;5.60;99.90;;;;;;5087915;28;20441;-54
2021/01/28 00:24:32;;;;;;;9.45;6.22;;;5.70;99.90;;;;;;5088231;28;20308;-53
2021/01/28 00:26:58;;;;;;;10.57;6.20;;;5.60;99.90;;;;;;5087538;28;20051;-54
2021/01/28 00:29:24;;;;;;;10.82;7.25;;;5.70;99.90;;;;;;5086891;28;20525;-53
2021/01/28 00:31:50;;;;;;;11.32;7.18;;;5.50;99.90;;;;;;5087900;28;20083;-54
2021/01/28 00:34:15;;;;;;;12.35;7.00;;;5.60;99.90;;;;;;5087675;28;20051;-53
2021/01/28 00:36:41;;;;;;;10.70;6.85;;;5.60;99.90;;;;;;5087511;28;20152;-54
2021/01/28 00:39:07;;;;;;;12.75;7.78;;;5.80;99.90;;;;;;5087862;28;20045;-55
2021/01/28 00:41:33;;;;;;;11.85;7.65;;;5.60;99.90;;;;;;5088364;28;20058;-54
2021/01/28 00:43:59;;;;;;;12.07;7.45;;;5.40;99.90;;;;;;5087420;28;20028;-54
2021/01/28 00:46:25;;;;;;;14.05;8.65;;;5.30;99.90;;;;;;5087761;28;20031;-50
2021/01/28 00:48:50;;;;;;;10.40;6.90;;;5.20;99.90;;;;;;5087071;28;20064;-51
2021/01/28 00:51:16;;;;;;;11.88;7.75;;;5.10;99.90;;;;;;5087571;28;20074;-54
2021/01/28 00:53:42;;;;;;;11.93;7.80;;;5.00;99.90;;;;;;5085986;28;20467;-53
2021/01/28 00:56:08;;;;;;;11.63;7.32;;;5.10;99.90;;;;;;5087355;28;20032;-53
2021/01/28 00:58:34;;;;;;;8.98;5.95;;;5.30;99.90;;;;;;5087883;28;20028;-51
2021/01/28 01:01:00;;;;;;;9.30;6.00;;;5.40;99.90;;;;;;5086126;28;20020;-50
2021/01/28 01:03:28;;;;;;;9.32;6.50;;;5.50;99.90;;;;;;5087193;28;20505;-53
2021/01/28 01:05:55;;;;;;;9.15;5.72;;;5.60;99.90;;;;;;5086448;28;20024;-50
2021/01/28 01:08:30;;;;;;;12.13;6.72;;;5.70;99.90;;;;;;5087323;28;20036;-53
2021/01/28 01:11:08;;;;;;;9.77;6.88;;;5.50;99.90;;;;;;5086841;28;20082;-52
2021/01/28 01:13:35;;;;;;;11.35;6.85;;;5.50;99.90;;;;;;5087689;28;20081;-53
2021/01/28 01:16:04;;;;;;;10.57;7.22;;;5.40;99.90;;;;;;5086790;28;20052;-54
2021/01/28 01:18:32;;;;;;;12.55;8.80;;;5.20;99.90;;;;;;5087266;28;20032;-53
2021/01/28 01:20:59;;;;;;;11.68;7.75;;;5.20;99.90;;;;;;5086518;28;20031;-51
2021/01/28 01:23:25;;;;;;;9.85;7.10;;;5.20;99.90;;;;;;5087138;28;20028;-53
2021/01/28 01:25:50;;;;;;;10.02;6.88;;;5.40;99.90;;;;;;5086626;28;20089;-51
2021/01/28 01:28:17;;;;;;;10.65;6.97;;;5.20;99.90;;;;;;5086917;28;20036;-52
2021/01/28 01:30:43;;;;;;;9.25;6.13;;;5.30;99.90;;;;;;5086645;28;20039;-53
2021/01/28 01:33:08;;;;;;;7.75;5.07;;;5.50;99.90;;;;;;5086487;28;20028;-54
2021/01/28 01:35:35;;;;;;;8.88;5.75;;;5.50;99.90;;;;;;5087105;28;20027;-51
2021/01/28 01:38:02;;;;;;;7.78;5.63;;;5.60;99.90;;;;;;5086417;28;20410;-54
2021/01/28 01:40:37;;;;;;;5.93;4.20;;;5.60;99.90;;;;;;5086618;28;20044;-54
2021/01/28 01:43:05;;;;;;;8.95;5.63;;;5.70;99.90;;;;;;5099968;28;20102;-54
2021/01/28 01:45:38;;;;;;;6.35;4.25;;;5.50;99.90;;;;;;5107338;28;20548;-54
2021/01/28 01:48:07;;;;;;;8.18;5.32;;;5.80;99.90;;;;;;5105274;28;20091;-53
2021/01/28 01:50:51;;;;;;;5.32;4.03;;;5.90;99.90;;;;;;5106797;28;20024;-54
2021/01/28 01:53:23;;;;;;;5.18;3.80;;;6.00;99.90;;;;;;5106701;28;20023;-52
2021/01/28 01:55:55;;;;;;;6.30;4.57;;;5.90;99.90;;;;;;5106482;28;20020;-52
2021/01/28 01:58:39;;;;;;;6.55;4.63;;;5.80;99.90;;;;;;5105849;28;20034;-54
2021/01/28 02:01:05;;;;;;;9.35;6.05;;;5.60;99.90;;;;;;5106418;28;20020;-54
2021/01/28 02:03:33;;;;;;;9.90;6.18;;;5.30;99.90;;;;;;5106231;28;20024;-54
2021/01/28 02:06:16;;;;;;;7.47;5.03;;;5.40;99.90;;;;;;5106265;28;20042;-53
2021/01/28 02:08:41;;;;;;;6.50;4.68;;;5.50;99.90;;;;;;5106122;28;20031;-53
2021/01/28 02:11:11;;;;;;;7.70;4.90;;;5.50;99.90;;;;;;5106246;28;20119;-55
2021/01/28 02:13:37;;;;;;;6.75;4.90;;;5.70;99.90;;;;;;5106236;28;20349;-54
2021/01/28 02:16:04;;;;;;;6.70;4.82;;;5.80;99.90;;;;;;5106412;28;20319;-54
2021/01/28 02:18:31;;;;;;;5.68;4.25;;;5.90;99.90;;;;;;5105101;28;20024;-54
2021/01/28 02:21:05;;;;;;;4.88;3.58;;;6.10;99.90;;;;;;5105642;28;20044;-53
2021/01/28 02:23:34;;;;;;;6.93;4.53;;;6.10;99.90;;;;;;5106075;28;20035;-55
2021/01/28 02:26:00;;;;;;;6.53;4.90;;;6.00;99.90;;;;;;5105837;28;20498;-53
2021/01/28 02:28:26;;;;;;;8.57;4.82;;;6.10;99.90;;;;;;5106046;28;20125;-54
2021/01/28 02:30:55;;;;;;;7.22;4.43;;;6.10;99.90;;;;;;5105725;28;20106;-55
2021/01/28 02:33:46;;;;;;;5.60;4.30;;;6.20;99.90;;;;;;5105727;28;20023;-54
2021/01/28 02:36:12;;;;;;;7.47;4.90;;;6.30;99.90;;;;;;5105992;28;20051;-55
2021/01/28 02:38:38;;;;;;;6.78;4.60;;;6.10;99.90;;;;;;5105485;28;20521;-55
2021/01/28 02:41:06;;;;;;;6.57;4.32;;;6.10;99.90;;;;;;5106090;28;20026;-53
2021/01/28 02:43:32;;;;;;;6.20;4.05;;;6.10;99.90;;;;;;5105847;28;20462;-53
2021/01/28 02:46:16;;;;;;;6.72;5.00;;;6.10;99.90;;;;;;5105899;28;20098;-55
2021/01/28 02:48:42;;;;;;;;;;;6.20;99.90;;;;;;5104283;28;20062;-54
2021/01/28 02:51:10;;;;;;;5.47;3.90;;;6.20;99.90;;;;;;5105859;28;19951;-55
2021/01/28 02:53:36;;;;;;;6.70;3.90;;;6.30;99.90;;;;;;5105191;28;20086;-54
2021/01/28 02:56:03;;;;;;;5.85;4.15;;;6.30;99.90;;;;;;5105348;28;20301;-55
2021/01/28 02:58:28;;;;;;;7.55;4.60;;;6.40;99.90;;;;;;5104580;28;20016;-55
2021/01/28 03:00:56;;;;;;;6.70;4.53;;;6.40;99.90;;;;;;5104911;28;20105;-55
2021/01/28 03:03:21;;;;;;;6.50;4.45;;;6.50;99.90;;;;;;5105271;28;20529;-55
2021/01/28 03:05:47;;;;;;;5.25;3.88;;;6.60;99.90;;;;;;5105424;28;20027;-56
2021/01/28 03:08:13;;;;;;;4.45;3.55;;;6.60;99.90;;;;;;5105728;28;20058;-55
2021/01/28 03:10:38;;;;;;;5.70;3.80;;;6.70;99.90;;;;;;5105178;28;20067;-55
2021/01/28 03:13:04;;;;;;;7.30;4.30;;;6.70;99.90;;;;;;5105279;28;20067;-56
2021/01/28 03:15:30;;;;;;;6.57;4.53;;;6.70;99.90;;;;;;5104183;28;20026;-55
2021/01/28 03:17:55;;;;;;;7.93;4.78;;;6.70;99.90;;;;;;5104740;28;20106;-55
2021/01/28 03:20:22;;;;;;;7.60;4.75;;;6.70;99.90;;;;;;5105534;28;20051;-55
2021/01/28 03:22:49;;;;;;;6.05;4.72;;;6.70;99.90;;;;;;5104982;28;20020;-55
2021/01/28 03:25:18;;;;;;;6.47;4.45;;;6.60;99.90;;;;;;5105841;28;20074;-55
2021/01/28 03:27:44;;;;;;;6.82;4.20;;;6.60;99.90;;;;;;5105288;28;20050;-55
2021/01/28 03:30:14;;;;;;;5.50;3.97;;;6.50;99.90;;;;;;5104766;28;20031;-54
2021/01/28 03:32:39;;;;;;;5.65;3.65;;;6.20;99.90;;;;;;5104858;28;20497;-56
2021/01/28 03:35:07;;;;;;;7.15;4.63;;;6.20;99.90;;;;;;5104868;28;20076;-55
2021/01/28 03:37:33;;;;;;;5.63;4.45;;;6.10;99.90;;;;;;5104918;28;20023;-56
2021/01/28 03:39:59;;;;;;;6.43;4.13;;;6.40;99.90;;;;;;5103023;28;20053;-53
2021/01/28 03:42:25;;;;;;;4.45;3.03;;;6.50;99.90;;;;;;5105409;28;20039;-55
2021/01/28 03:44:51;;;;;;;3.88;3.20;;;6.50;99.90;;;;;;5103330;28;20063;-54
2021/01/28 03:47:17;;;;;;;5.00;3.67;;;6.50;99.90;;;;;;5104224;28;20054;-55
2021/01/28 03:49:43;;;;;;;5.18;3.88;;;6.50;99.90;;;;;;5104714;28;20027;-55
2021/01/28 03:52:09;;;;;;;6.32;4.35;;;6.40;99.90;;;;;;5104239;28;20028;-55
2021/01/28 03:54:35;;;;;;;6.57;4.30;;;6.40;99.90;;;;;;5104456;28;20034;-54
2021/01/28 03:57:00;;;;;;;8.45;5.35;;;6.40;99.90;;;;;;5104221;28;20062;-55
2021/01/28 03:59:26;;;;;;;7.97;5.60;;;6.40;99.90;;;;;;5104374;28;20023;-56
2021/01/28 04:01:51;;;;;;;9.10;5.13;;;6.10;99.90;;;;;;5104286;28;20332;-56
2021/01/28 04:04:18;;;;;;;10.45;6.15;;;5.90;99.90;;;;;;5104793;28;20080;-55
2021/01/28 04:06:44;;;;;;;8.70;6.38;;;5.80;99.90;;;;;;5104947;28;20466;-56
2021/01/28 04:09:09;;;;;;;11.55;6.10;;;5.80;99.90;;;;;;5104718;28;20046;-55
2021/01/28 04:11:35;;;;;;;7.80;5.38;;;5.90;99.90;;;;;;5104804;28;20039;-55
2021/01/28 04:14:01;;;;;;;7.97;5.85;;;6.10;99.90;;;;;;5104746;28;20537;-54
2021/01/28 04:16:27;;;;;;;6.38;4.55;;;6.30;99.90;;;;;;5103958;28;20503;-54
2021/01/28 04:18:53;;;;;;;5.82;3.88;;;6.50;99.90;;;;;;5104128;28;20024;-54
2021/01/28 04:21:18;;;;;;;5.70;3.72;;;6.60;99.90;;;;;;5104707;28;20019;-55
2021/01/28 04:23:44;;;;;;;5.10;3.67;;;6.60;99.90;;;;;;5104141;28;20059;-55
2021/01/28 04:26:10;;;;;;;6.07;3.88;;;6.50;99.90;;;;;;5104583;28;20395;-55
2021/01/28 04:28:35;;;;;;;6.03;3.83;;;6.60;99.90;;;;;;5108246;28;20085;-56
2021/01/28 04:31:02;;;;;;;5.78;3.53;;;6.50;99.90;;;;;;5108531;28;20489;-54
2021/01/28 04:33:27;;;;;;;5.15;4.00;;;6.70;99.90;;;;;;5109013;28;20028;-55
2021/01/28 04:35:53;;;;;;;5.95;3.85;;;6.70;99.90;;;;;;5107945;28;20020;-55
2021/01/28 04:38:19;;;;;;;5.65;3.70;;;6.60;99.90;;;;;;5108461;28;20513;-56
2021/01/28 04:40:51;;;;;;;5.15;3.88;;;6.70;99.90;;;;;;5108060;28;20300;-56
2021/01/28 04:43:27;;;;;;;5.75;3.97;;;6.60;99.90;;;;;;5108041;28;20023;-55
2021/01/28 04:45:58;;;;;;;7.07;4.60;;;6.70;99.90;;;;;;5103344;28;20054;-55
2021/01/28 04:48:24;;;;;;;6.40;3.92;;;6.80;99.90;;;;;;5092940;28;20089;-56
2021/01/28 04:50:51;;;;;;;4.90;3.60;;;6.80;99.90;;;;;;5098504;28;20023;-55
2021/01/28 04:53:21;;;;;;;4.72;3.72;;;6.90;99.90;;;;;;5088674;28;20060;-55
2021/01/28 04:55:53;;;;;;;5.93;4.18;;;7.00;99.90;;;;;;5106481;28;20016;-55
2021/01/28 04:58:19;;;;;;;8.63;4.90;;;6.90;99.90;;;;;;5096175;28;20052;-55
2021/01/28 05:00:45;;;;;;;11.52;6.00;;;6.80;99.90;;;;;;5106387;28;20730;-56
2021/01/28 05:03:21;;;;;;;9.50;5.72;;;6.60;99.90;;;;;;5109524;28;20040;-56
2021/01/28 05:05:50;;;;;;;6.80;4.40;;;6.50;99.90;;;;;;5107205;27;20024;-56
2021/01/28 05:08:16;;;;;;;7.70;4.72;;;6.50;99.90;;;;;;5109232;28;20036;-55
2021/01/28 05:10:47;;;;;;;6.65;4.47;;;6.50;99.90;;;;;;5109066;28;20035;-55
2021/01/28 05:13:24;;;;;;;5.53;3.80;;;6.40;99.90;;;;;;5100841;28;20024;-55
2021/01/28 05:15:51;;;;;;;6.55;4.78;;;6.40;99.90;;;;;;5088312;28;20093;-55
2021/01/28 05:18:26;;;;;;;7.28;4.93;;;6.30;99.90;;;;;;5088743;28;20032;-55
2021/01/28 05:21:01;;;;;;;6.05;4.20;;;6.10;99.90;;;;;;5088200;28;20032;-55
2021/01/28 05:23:32;;;;;;;4.78;3.42;;;6.30;99.90;;;;;;5088755;28;20436;-55
2021/01/28 05:25:59;;;;;;;5.65;3.63;;;6.50;99.90;;;;;;5088607;28;20028;-56
2021/01/28 05:28:37;;;;;;;5.53;3.70;;;6.50;99.90;;;;;;5100364;28;20476;-56
2021/01/28 05:31:03;;;;;;;6.88;3.80;;;6.40;99.90;;;;;;5103838;28;20088;-56
2021/01/28 05:33:40;;;;;;;4.78;3.65;;;6.20;99.90;;;;;;5107184;28;20038;-56
2021/01/28 05:36:21;;;;;;;5.32;3.90;;;6.20;99.90;;;;;;5106977;28;20019;-56
2021/01/28 05:38:53;;;;;;;5.88;4.32;;;6.20;99.90;;;;;;5106346;28;20429;-56
2021/01/28 05:41:30;;;;;;;4.43;3.33;;;6.50;99.90;;;;;;5106749;28;20307;-55
2021/01/28 05:43:56;;;;;;;5.75;3.88;;;6.50;99.90;;;;;;5106683;28;20039;-55
2021/01/28 05:46:28;;;;;;;5.55;3.90;;;6.70;99.90;;;;;;5106708;28;20521;-55
2021/01/28 05:49:19;;;;;;;5.57;3.70;;;6.80;99.90;;;;;;5106512;28;20582;-55
2021/01/28 05:51:46;;;;;;;5.68;4.07;;;6.90;99.90;;;;;;5106043;28;20175;-56
2021/01/28 05:54:14;;;;;;;6.20;4.70;;;6.80;99.90;;;;;;5106641;28;20028;-55
2021/01/28 05:57:11;;;;;;;8.25;5.68;;;6.50;99.90;;;;;;5106313;28;20023;-56
2021/01/28 05:59:42;;;;;;;7.00;4.50;;;6.40;99.90;;;;;;5106992;28;20020;-56
2021/01/28 06:02:45;;;;;;;7.75;5.15;;;6.80;99.90;;;;;;5106493;28;20012;-56
2021/01/28 06:05:28;;;;;;;6.40;4.47;;;6.50;99.90;;;;;;5106490;28;20409;-56
2021/01/28 06:08:23;;;;;;;6.17;4.10;;;6.80;99.90;;;;;;5106152;28;20023;-56
2021/01/28 06:11:10;;;;;;;5.45;4.03;;;6.90;99.90;;;;;;5105965;28;20512;-56
2021/01/28 06:13:53;;;;;;;4.95;3.90;;;6.90;99.90;;;;;;5106280;28;20034;-56
2021/01/28 06:16:22;;;;;;;6.38;4.65;;;6.70;99.90;;;;;;5106218;28;20102;-56
2021/01/28 06:19:06;;;;;;;8.85;4.93;;;6.60;99.90;;;;;;5105831;28;20024;-56
2021/01/28 06:21:51;;;;;;;8.20;4.50;;;6.40;99.90;;;;;;5106959;28;20031;-56
2021/01/28 06:24:36;;;;;;;5.68;3.97;;;6.60;99.90;;;;;;5105952;28;20059;-56
2021/01/28 06:27:07;;;;;;;6.55;4.75;;;6.60;99.90;;;;;;5106104;28;20041;-56
2021/01/28 06:29:44;;;;;;;6.47;4.13;;;6.60;99.90;;;;;;5105896;28;20118;-56
2021/01/28 06:32:47;;;;;;;6.97;4.20;;;6.50;99.90;;;;;;5106032;28;20039;-56
2021/01/28 06:35:29;;;;;;;6.38;4.53;;;6.40;99.90;;;;;;5105847;28;20049;-56
2021/01/28 06:37:55;;;;;;;6.05;4.18;;;6.50;99.90;;;;;;5105775;28;20469;-56
2021/01/28 06:40:25;;;;;;;7.60;4.72;;;6.70;99.90;;;;;;5105802;28;20027;-56
2021/01/28 06:42:59;;;;;;;5.63;4.47;;;6.60;99.90;;;;;;5105958;28;20093;-56
2021/01/28 06:45:31;;;;;;;6.53;4.63;;;6.60;99.90;;;;;;5105523;28;20514;-56
2021/01/28 06:47:59;;;;;;;8.40;5.82;;;6.40;99.90;;;;;;5105606;28;20023;-56
2021/01/28 06:50:41;;;;;;;7.32;4.72;;;6.20;99.90;;;;;;5105275;28;20031;-56
2021/01/28 06:53:27;;;;;;;7.25;5.20;;;6.40;99.90;;;;;;5103882;28;20028;-56
2021/01/28 06:56:01;;;;;;;10.05;6.90;;;6.40;99.90;;;;;;5105225;28;20058;-56
2021/01/28 06:58:55;;;;;;;8.25;5.50;;;6.10;99.90;;;;;;5106052;28;20080;-56
2021/01/28 07:01:40;;;;;;;6.75;4.20;;;6.30;99.90;;;;;;5105545;28;20024;-56
2021/01/28 07:04:16;;;;;;;6.55;4.47;;;6.50;99.90;;;;;;5105390;28;20126;-56
2021/01/28 07:07:01;;;;;;;11.15;7.13;;;6.40;99.90;;;;;;5105199;27;20073;-56
2021/01/28 07:09:41;;;;;;;10.73;7.20;;;6.00;99.90;;;;;;5106193;28;20077;-55
2021/01/28 07:12:11;;;;;;;8.23;5.45;;;6.10;99.90;;;;;;5105051;28;20431;-55
2021/01/28 07:14:37;;;;;;;7.82;5.05;;;6.40;99.90;;;;;;5105111;28;20119;-56
2021/01/28 07:17:22;;;;;;;9.05;6.22;;;6.50;99.90;;;;;;5105254;28;20023;-56
2021/01/28 07:19:54;;;;;;;8.93;6.38;;;6.30;99.90;;;;;;5105142;28;20035;-56
2021/01/28 07:22:36;;;;;;;10.52;7.00;;;6.20;99.90;;;;;;5105237;28;20031;-56
2021/01/28 07:25:30;;;;;;;8.45;5.70;;;6.20;99.90;;;;;;5104873;28;20034;-57
2021/01/28 07:28:13;;;;;;;9.35;6.28;;;6.10;99.90;;;;;;5104989;28;20106;-56
2021/01/28 07:30:46;;;;;;;11.23;7.05;;;6.20;99.90;;;;;;5104658;28;20020;-56
2021/01/28 07:33:23;;;;;;;7.00;5.28;;;6.10;99.90;;;;;;5104984;28;20028;-56
2021/01/28 07:35:58;;;;;;;9.10;5.90;;;6.20;99.90;;;;;;5104799;28;20465;-57
2021/01/28 07:38:29;;;;;;;8.98;5.80;;;6.20;99.90;;;;;;5105079;28;20435;-56
2021/01/28 07:41:16;;;;;;;6.82;4.70;;;6.20;99.90;;;;;;5104827;28;20028;-55
2021/01/28 07:43:45;;;;;;;6.18;4.45;;;6.40;99.90;;;;;;5104776;28;20019;-55
2021/01/28 07:46:33;;;;;;;4.43;3.40;;;6.60;99.90;;;;;;5104557;28;20035;-56
2021/01/28 07:49:18;;;;;;;6.68;4.63;;;6.70;99.90;;;;;;5105378;28;20038;-55
2021/01/28 07:51:51;;;;;;;6.88;4.45;;;6.70;99.90;;;;;;5104027;28;20504;-56
2021/01/28 07:54:22;;;;;;;5.32;3.67;;;6.80;99.90;;;;;;5104682;28;20493;-55
2021/01/28 07:56:52;;;;;;;6.22;4.32;;;6.90;99.90;;;;;;5104458;28;20028;-56
2021/01/28 07:59:39;;;;;;;8.23;4.45;;;6.90;99.90;;;;;;5104491;28;20042;-57
2021/01/28 08:02:27;;;;;;;7.25;4.93;;;6.60;99.90;;;;;;5100601;28;20429;-56
2021/01/28 08:05:03;;;;;;;9.02;6.00;;;6.50;99.90;;;;;;5107347;28;20096;-55
2021/01/28 08:07:36;;;;;;;11.55;7.13;;;6.30;99.90;;;;;;5109092;28;20505;-56
2021/01/28 08:10:22;;;;;;;8.30;5.75;;;6.50;99.90;;;;;;5109351;28;20045;-56
2021/01/28 08:12:55;;;;;;;9.48;6.32;;;6.40;99.90;;;;;;5089750;28;20115;-56
2021/01/28 08:15:48;;;;;;;9.55;6.60;;;6.30;99.90;;;;;;5101142;28;20115;-56
2021/01/28 08:18:27;;;;;;;6.72;4.57;;;6.50;99.90;;;;;;5104481;28;21286;-56
2021/01/28 08:21:20;;;;;;;6.07;4.10;;;6.70;99.90;;;;;;5097920;28;20039;-56
2021/01/28 08:23:46;;;;;;;5.00;3.85;;;6.80;99.90;;;;;;5087851;28;20046;-56
2021/01/28 08:26:30;;;;;;;7.30;4.57;;;6.80;99.90;;;;;;5102664;28;20506;-56
2021/01/28 08:29:14;;;;;;;6.78;4.25;;;6.90;99.90;;;;;;5106191;28;20048;-56
2021/01/28 08:31:51;;;;;;;9.68;6.50;;;7.00;99.90;;;;;;5108036;28;20139;-56
2021/01/28 08:34:36;;;;;;;7.18;5.40;;;7.00;99.90;;;;;;5087755;28;20486;-56
2021/01/28 08:37:12;;;;;;;;;;;6.80;99.90;;;;;;5088543;28;20073;-56
2021/01/28 08:39:38;;;;;;;8.80;6.32;;;6.90;99.90;;;;;;5087664;28;20293;-57
2021/01/28 08:42:05;;;;;;;8.70;5.35;;;7.00;99.90;;;;;;5089537;28;20024;-57
2021/01/28 08:44:32;;;;;;;9.63;5.80;;;7.00;99.90;;;;;;5108568;28;20488;-56
2021/01/28 08:47:16;;;;;;;6.68;4.50;;;6.90;99.90;;;;;;5108230;28;20452;-55
2021/01/28 08:49:43;;;;;;;5.43;4.07;;;7.10;99.90;;;;;;5107981;28;20022;-56
2021/01/28 08:52:12;;;;;;;8.60;4.97;;;7.10;99.90;;;;;;5106820;28;20123;-56
2021/01/28 08:54:43;;;;;;;8.73;5.25;;;6.90;99.90;;;;;;5109296;28;20031;-56
2021/01/28 08:57:14;;;;;;;10.07;6.53;;;7.00;99.90;;;;;;5095129;28;20020;-55
2021/01/28 08:59:57;;;;;;;10.48;7.20;;;7.20;99.90;;;;;;5086411;28;20028;-55
2021/01/28 09:02:30;;;;;;;11.30;7.07;;;7.20;99.90;;;;;;5094480;28;20068;-55
2021/01/28 09:05:22;;;;;;;10.38;6.15;;;7.20;99.90;;;;;;5094194;28;20036;-56
2021/01/28 09:08:01;;;;;;;13.35;7.78;;;7.40;99.90;;;;;;5085654;28;20123;-56
2021/01/28 09:10:34;;;;;;;11.02;6.68;;;7.20;99.90;;;;;;5087166;28;20036;-55
2021/01/28 09:13:29;;;;;;;12.35;6.68;;;7.10;99.90;;;;;;5086030;28;20518;-56
2021/01/28 09:16:10;;;;;;;9.02;5.00;;;7.10;99.90;;;;;;5086798;28;20070;-55
2021/01/28 09:18:43;;;;;;;12.20;7.28;;;7.30;99.90;;;;;;5087033;28;20021;-55
2021/01/28 09:21:15;;;;;;;10.43;6.22;;;7.20;99.90;;;;;;5088317;28;20036;-56
2021/01/28 09:24:11;;;;;;;9.45;6.25;;;7.30;99.90;;;;;;5097395;28;20104;-55
2021/01/28 09:26:38;;;;;;;8.38;5.38;;;7.10;99.90;;;;;;5086815;28;20520;-54
2021/01/28 09:29:17;;;;;;;7.47;5.38;;;7.20;99.90;;;;;;5086604;28;20073;-55
2021/01/28 09:31:44;;;;;;;8.52;5.13;;;7.10;99.90;;;;;;5086673;28;20064;-55
2021/01/28 09:34:32;;;;;;;6.75;4.90;;;7.10;99.90;;;;;;5086466;28;20575;-55
2021/01/28 09:37:18;;;;;;;5.57;4.10;;;7.30;99.90;;;;;;5087194;28;20034;-56
2021/01/28 09:39:52;;;;;;;6.20;4.53;;;7.30;99.90;;;;;;5086517;28;20410;-55
2021/01/28 09:42:28;;;;;;;4.03;3.27;;;7.30;99.90;;;;;;5086971;28;20032;-56
2021/01/28 09:44:55;;;;;;;8.50;5.70;;;7.40;99.90;;;;;;5096071;28;20063;-56
2021/01/28 09:47:31;;;;;;;9.18;5.70;;;7.30;99.90;;;;;;5106862;28;20031;-54
2021/01/28 09:49:59;;;;;;;8.90;5.80;;;7.40;99.90;;;;;;5107096;28;20035;-55
2021/01/28 09:52:30;;;;;;;12.75;8.43;;;7.60;99.90;;;;;;5106440;28;20031;-54
2021/01/28 09:54:59;;;;;;;11.32;7.53;;;7.50;99.90;;;;;;5095132;28;20040;-55
2021/01/28 09:57:25;;;;;;;10.35;7.03;;;7.60;99.90;;;;;;5086015;28;20028;-54
2021/01/28 09:59:52;;;;;;;8.15;6.22;;;7.80;99.90;;;;;;5086420;28;20035;-55
2021/01/28 10:02:34;;;;;;;7.82;5.53;;;7.90;99.90;;;;;;5089927;28;20024;-55
2021/01/28 10:05:02;;;;;;;6.22;4.35;;;8.00;99.90;;;;;;5099454;28;20035;-56
2021/01/28 10:07:27;;;;;;;4.95;3.42;;;8.20;99.90;;;;;;5106092;28;20031;-55
2021/01/28 10:09:53;;;;;;;4.55;3.00;;;8.30;99.90;;;;;;5087816;28;20032;-55
2021/01/28 10:12:20;;;;;;;8.07;5.13;;;8.30;99.90;;;;;;5127114;27;20404;-54
2021/01/28 10:14:46;;;;;;;7.43;4.88;;;8.20;99.90;;;;;;5110244;27;20168;-55
2021/01/28 10:17:14;;;;;;;7.07;4.60;;;8.20;99.90;;;;;;5085472;28;20553;-55
2021/01/28 10:19:44;;;;;;;6.60;4.38;;;8.30;99.90;;;;;;5085251;28;20154;-54
2021/01/28 10:22:12;;;;;;;4.05;3.17;;;8.30;99.90;;;;;;5085428;28;20016;-54
2021/01/28 10:24:38;;;;;;;5.47;3.88;;;8.30;99.90;;;;;;5084708;28;20521;-54
2021/01/28 10:27:03;;;;;;;9.82;6.22;;;8.30;99.90;;;;;;5085047;28;20028;-55
2021/01/28 10:29:29;;;;;;;6.55;4.63;;;8.40;99.90;;;;;;5085758;28;20024;-56
2021/01/28 10:31:55;;;;;;;7.13;4.43;;;8.40;99.90;;;;;;5084921;28;20497;-55
2021/01/28 10:34:21;;;;;;;7.18;4.63;;;8.40;99.90;;;;;;5084569;28;20525;-55
2021/01/28 10:36:46;;;;;;;7.63;5.20;;;8.50;99.90;;;;;;5084640;28;20055;-54
2021/01/28 10:39:13;;;;;;;6.28;4.40;;;8.60;99.90;;;;;;5104878;28;20255;-54
2021/01/28 10:41:39;;;;;;;6.80;4.68;;;8.70;99.90;;;;;;5105015;28;20027;-54
2021/01/28 10:44:05;;;;;;;6.72;4.30;;;8.80;99.90;;;;;;5096266;28;20232;-53
2021/01/28 10:46:31;;;;;;;7.45;4.40;;;8.90;99.90;;;;;;5085571;28;20028;-54
2021/01/28 10:48:57;;;;;;;7.03;4.45;;;9.10;99.90;;;;;;5084475;28;20532;-53
2021/01/28 10:51:23;;;;;;;11.48;5.65;;;9.20;99.90;;;;;;5084857;28;20107;-55
2021/01/28 10:53:49;;;;;;;8.27;4.65;;;9.30;99.90;;;;;;5083808;28;20036;-56
2021/01/28 10:56:14;;;;;;;6.47;3.70;;;9.30;99.90;;;;;;5084657;28;20017;-55
2021/01/28 10:58:40;;;;;;;5.65;2.63;;;9.40;99.90;;;;;;5084134;28;20059;-54
2021/01/28 11:01:06;;;;;;;3.45;2.20;;;9.50;99.90;;;;;;5084407;28;20402;-54
2021/01/28 11:03:35;;;;;;;3.13;2.08;;;9.60;99.90;;;;;;5084627;28;20042;-54
2021/01/28 11:06:00;;;;;;;3.28;1.90;;;9.80;99.90;;;;;;5084913;28;20042;-54
2021/01/28 11:08:27;;;;;;;3.33;1.85;;;9.80;99.90;;;;;;5084418;28;20417;-54
2021/01/28 11:10:53;;;;;;;1.95;1.45;;;9.90;99.90;;;;;;5094453;28;20089;-56
2021/01/28 11:13:20;;;;;;;4.53;1.27;;;10.00;99.90;;;;;;5101591;28;20027;-53
2021/01/28 11:15:46;;;;;;;2.00;1.02;;;10.00;99.90;;;;;;5104552;28;20690;-54
2021/01/28 11:18:11;;;;;;;2.85;1.30;;;10.00;99.90;;;;;;5104701;28;20055;-54
2021/01/28 11:20:38;;;;;;;2.67;1.88;;;10.00;99.90;;;;;;5105290;28;20055;-54
2021/01/28 11:23:04;;;;;;;4.22;2.45;;;10.00;99.90;;;;;;5085605;28;20064;-55
2021/01/28 11:25:31;;;;;;;3.55;2.30;;;10.00;99.90;;;;;;5088746;28;20043;-55
2021/01/28 11:27:58;;;;;;;3.60;2.15;;;10.00;99.90;;;;;;5090364;28;20265;-53
2021/01/28 11:30:27;;;;;;;3.50;1.80;;;10.00;99.90;;;;;;5095387;28;20059;-54
2021/01/28 11:32:53;;;;;;;3.50;2.03;;;9.90;99.90;;;;;;5083894;28;20089;-54
2021/01/28 11:35:21;;;;;;;3.05;1.95;;;10.00;99.90;;;;;;5084108;28;20024;-55
2021/01/28 11:37:48;;;;;;;3.05;1.83;;;9.90;99.90;;;;;;5091198;28;20106;-55
2021/01/28 11:40:20;;;;;;;2.13;1.40;;;10.00;99.90;;;;;;5104591;28;20056;-55
2021/01/28 11:42:46;;;;;;;1.70;1.10;;;10.20;99.90;;;;;;5104126;28;20023;-55
2021/01/28 11:45:13;;;;;;;2.30;1.63;;;10.20;99.90;;;;;;5090889;28;20548;-54
2021/01/28 11:47:39;;;;;;;2.97;1.70;;;10.10;99.90;;;;;;5083678;28;20059;-55
2021/01/28 11:50:07;;;;;;;2.45;1.58;;;10.10;99.90;;;;;;5083726;28;20032;-54
2021/01/28 11:52:33;;;;;;;3.50;2.28;;;10.10;99.90;;;;;;5089787;28;20560;-53
2021/01/28 11:54:58;;;;;;;2.90;2.00;;;10.00;99.90;;;;;;5104129;28;20460;-53
2021/01/28 11:57:24;;;;;;;2.35;1.95;;;10.00;99.90;;;;;;5106391;27;20032;-54
2021/01/28 11:59:49;;;;;;;2.72;2.03;;;10.00;99.90;;;;;;5097787;28;20088;-54
2021/01/28 12:02:15;;;;;;;2.90;2.22;;;10.00;99.90;;;;;;5089997;28;20048;-55
2021/01/28 12:04:40;;;;;;;3.63;2.28;;;10.00;99.90;;;;;;5083563;28;20097;-55
2021/01/28 12:07:08;;;;;;;18.30;10.75;;;10.00;99.90;;;;;;5083805;28;20024;-56
2021/01/28 12:09:33;;;;;;;16.40;9.85;;;10.00;99.90;;;;;;5083949;28;20068;-55
2021/01/28 12:11:59;;;;;;;11.43;7.30;;;9.90;99.90;;;;;;5083733;28;20055;-54
2021/01/28 12:14:25;;;;;;;9.98;7.10;;;9.90;99.90;;;;;;5083768;28;20370;-54
2021/01/28 12:16:50;;;;;;;8.32;5.13;;;9.80;99.90;;;;;;5083497;28;20048;-54
2021/01/28 12:19:16;;;;;;;6.70;4.70;;;9.80;99.90;;;;;;5098117;28;20067;-54
2021/01/28 12:21:42;;;;;;;7.57;4.65;;;9.90;99.90;;;;;;5103918;28;20104;-55
2021/01/28 12:24:08;;;;;;;10.70;7.18;;;10.00;99.90;;;;;;5103894;28;20028;-55
2021/01/28 12:26:34;;;;;;;8.68;6.53;;;10.00;99.90;;;;;;5103899;28;20042;-55
2021/01/28 12:28:59;;;;;;;9.20;5.57;;;10.00;99.90;;;;;;5094293;28;20084;-54
2021/01/28 12:31:25;;;;;;;8.25;6.10;;;10.00;99.90;;;;;;5100943;28;20127;-54
2021/01/28 12:33:50;;;;;;;8.05;6.13;;;10.10;99.90;;;;;;5087360;28;20251;-53
2021/01/28 12:36:17;;;;;;;8.80;5.30;;;10.20;99.90;;;;;;5100527;28;20024;-53
2021/01/28 12:38:43;;;;;;;7.63;4.38;;;10.30;99.90;;;;;;5100798;28;20020;-54
2021/01/28 12:41:09;;;;;;;5.90;3.33;;;10.40;99.90;;;;;;5083253;28;20020;-53
2021/01/28 12:43:34;;;;;;;3.92;2.58;;;10.50;99.90;;;;;;5083319;28;20033;-54
2021/01/28 12:46:00;;;;;;;3.83;2.45;;;10.50;99.90;;;;;;5083310;28;20032;-55
2021/01/28 12:48:26;;;;;;;5.53;3.05;;;10.60;99.90;;;;;;5083940;28;20557;-54
2021/01/28 12:50:52;;;;;;;4.57;3.13;;;10.60;99.90;;;;;;5092114;28;20032;-55
2021/01/28 12:53:18;;;;;;;3.28;2.20;;;10.60;99.90;;;;;;5105420;28;20031;-55
2021/01/28 12:55:43;;;;;;;3.17;1.92;;;10.60;99.90;;;;;;5104524;28;20110;-54
2021/01/28 12:58:10;;;;;;;2.75;1.75;;;10.70;99.90;;;;;;5095945;28;20026;-55
2021/01/28 13:00:37;;;;;;;3.17;2.00;;;10.80;99.90;;;;;;5097337;28;20079;-55
2021/01/28 13:03:04;;;;;;;3.05;2.00;;;10.70;99.90;;;;;;5107054;28;20026;-55
2021/01/28 13:05:29;;;;;;;2.10;1.70;;;10.60;99.90;;;;;;5104462;28;20042;-55
2021/01/28 13:07:55;;;;;;;1.67;1.40;;;10.60;99.90;;;;;;5088319;28;20031;-55
2021/01/28 13:10:21;;;;;;;2.67;1.52;;;10.50;99.90;;;;;;5086588;28;20024;-55
2021/01/28 13:12:47;;;;;;;2.28;1.52;;;10.40;99.90;;;;;;5087970;28;20063;-55